Time;durP1;ratioP1;P1;durP2;ratioP2;P2;SDS_P1;SDS_P2;PMS_P1;PMS_P2;Temp;Humidity;BMP_temperature;BMP_pressure;BME280_temperature;BME280_humidity;BME280_pressure;Samples;Min_cycle;Max_cycle;Signal;HPM_P1;HPM_P2
2021/01/17 00:00:24;;;;;;;156.80;50.20;;;-18.00;76.30;;;;;;5076780;28;20031;-93
2021/01/17 00:02:53;;;;;;;145.57;46.40;;;-18.00;76.40;;;;;;5094895;28;20085;-93
2021/01/17 00:05:24;;;;;;;147.83;42.83;;;-18.00;76.60;;;;;;5095063;28;20031;-93
2021/01/17 00:07:50;;;;;;;151.23;47.67;;;-18.00;76.50;;;;;;5093738;28;20028;-93
2021/01/17 00:10:22;;;;;;;145.57;48.17;;;-18.00;76.60;;;;;;5076925;28;20031;-93
2021/01/17 00:12:49;;;;;;;138.93;45.47;;;-18.00;76.60;;;;;;5077205;28;20458;-93
2021/01/17 00:15:15;;;;;;;153.57;52.60;;;-18.00;76.50;;;;;;5076754;28;20031;-93
2021/01/17 00:17:42;;;;;;;177.13;55.60;;;-18.00;76.20;;;;;;5076748;28;20020;-93
2021/01/17 00:20:12;;;;;;;163.10;49.73;;;-18.00;76.50;;;;;;5076984;28;20024;-93
2021/01/17 00:22:39;;;;;;;163.70;49.40;;;-18.00;76.80;;;;;;5076615;28;20118;-93
2021/01/17 00:25:06;;;;;;;176.47;49.97;;;-18.00;76.50;;;;;;5076804;28;20051;-93
2021/01/17 00:27:32;;;;;;;145.27;44.47;;;-18.00;76.40;;;;;;5076848;28;20032;-93
2021/01/17 00:29:58;;;;;;;145.13;42.83;;;-18.00;76.40;;;;;;5077045;28;20024;-93
2021/01/17 00:32:24;;;;;;;143.27;40.07;;;-17.90;76.30;;;;;;5094440;28;20066;-93
2021/01/17 00:34:50;;;;;;;152.73;48.33;;;-17.80;76.10;;;;;;5087064;28;20051;-92
2021/01/17 00:37:16;;;;;;;139.30;42.27;;;-17.90;76.70;;;;;;5106260;28;20062;-93
2021/01/17 00:39:42;;;;;;;142.50;39.03;;;-17.80;76.60;;;;;;5087977;28;20122;-92
2021/01/17 00:42:18;;;;;;;147.20;44.10;;;-17.80;76.40;;;;;;5088249;28;20040;-92
2021/01/17 00:44:44;;;;;;;140.07;45.53;;;-17.80;76.30;;;;;;5088509;28;20032;-93
2021/01/17 00:47:13;;;;;;;131.03;41.03;;;-18.00;77.20;;;;;;5088509;28;20092;-92
2021/01/17 00:49:43;;;;;;;154.43;42.37;;;-18.10;77.20;;;;;;5080455;28;20103;-93
2021/01/17 00:52:18;;;;;;;152.52;42.95;;;-18.00;77.00;;;;;;5080381;28;20017;-90
2021/01/17 00:54:44;;;;;;;136.23;39.17;;;-18.00;76.70;;;;;;5081858;28;20020;-92
2021/01/17 00:57:10;;;;;;;136.57;39.13;;;-17.90;76.50;;;;;;5076443;28;20039;-93
2021/01/17 00:59:36;;;;;;;127.37;40.13;;;-17.90;76.50;;;;;;5076139;28;20024;-93
2021/01/17 01:02:03;;;;;;;139.77;43.87;;;-17.80;76.40;;;;;;5076292;28;20024;-93
2021/01/17 01:04:29;;;;;;;154.73;44.20;;;-17.10;76.80;;;;;;5076016;28;20469;-93
2021/01/17 01:06:54;;;;;;;143.03;45.97;;;-17.90;76.40;;;;;;5094130;28;20030;-93
2021/01/17 01:09:21;;;;;;;150.27;46.03;;;-17.90;76.80;;;;;;5078505;28;20024;-93
2021/01/17 01:11:48;;;;;;;156.47;49.27;;;-18.00;77.20;;;;;;5080194;28;20772;-93
2021/01/17 01:14:14;;;;;;;149.90;48.37;;;-18.10;77.20;;;;;;5080201;28;20016;-92
2021/01/17 01:16:40;;;;;;;165.93;51.03;;;-18.10;77.40;;;;;;5079914;28;20023;-93
2021/01/17 01:19:06;;;;;;;150.93;48.00;;;-18.10;78.20;;;;;;5079929;28;20533;-92
2021/01/17 01:21:33;;;;;;;165.00;50.83;;;-18.10;78.00;;;;;;5079646;28;20031;-92
2021/01/17 01:24:00;;;;;;;141.87;43.00;;;-18.20;77.90;;;;;;5079723;28;20024;-92
2021/01/17 01:26:27;;;;;;;115.93;36.60;;;-18.10;77.80;;;;;;5079685;28;20457;-93
2021/01/17 01:28:55;;;;;;;124.23;42.40;;;-18.10;77.50;;;;;;5096647;28;20473;-93
2021/01/17 01:31:25;;;;;;;142.80;46.93;;;-18.00;77.40;;;;;;5079785;28;20020;-92
2021/01/17 01:33:52;;;;;;;115.50;35.05;;;-17.40;77.80;;;;;;5079498;28;20027;-92
2021/01/17 01:36:19;;;;;;;117.93;35.23;;;-18.00;77.20;;;;;;5097546;28;20028;-93
2021/01/17 01:38:45;;;;;;;125.57;36.93;;;-17.90;76.90;;;;;;5097566;28;20066;-93
2021/01/17 01:41:11;;;;;;;124.40;37.87;;;-17.80;76.70;;;;;;5079486;28;20020;-92
2021/01/17 01:43:37;;;;;;;132.20;38.10;;;-17.80;76.70;;;;;;5079678;28;20403;-93
2021/01/17 01:46:03;;;;;;;102.67;32.70;;;-17.80;76.90;;;;;;5079395;28;20044;-93
2021/01/17 01:48:33;;;;;;;110.03;33.43;;;-17.80;76.90;;;;;;5096458;28;20048;-93
2021/01/17 01:51:01;;;;;;;117.38;34.63;;;-17.90;76.70;;;;;;5079331;28;20020;-92
2021/01/17 01:53:27;;;;;;;113.70;36.50;;;-17.80;76.70;;;;;;5079284;28;20127;-92
2021/01/17 01:55:53;;;;;;;115.87;36.30;;;-17.80;76.60;;;;;;5097202;28;20027;-93
2021/01/17 01:58:23;;;;;;;121.13;36.67;;;-17.80;76.70;;;;;;5096270;28;20024;-92
2021/01/17 02:00:52;;;;;;;132.48;36.65;;;-17.80;76.60;;;;;;5079102;28;20031;-92
2021/01/17 02:03:18;;;;;;;130.10;39.57;;;-17.80;76.70;;;;;;5079090;28;20390;-92
2021/01/17 02:05:44;;;;;;;118.53;37.70;;;-17.90;76.70;;;;;;5095921;28;20045;-93
2021/01/17 02:08:13;;;;;;;115.57;33.53;;;-17.90;76.70;;;;;;5078599;28;20032;-92
2021/01/17 02:10:42;;;;;;;125.22;38.88;;;-16.20;77.60;;;;;;5079053;28;20035;-93
2021/01/17 02:13:23;;;;;;;152.27;46.07;;;-17.80;76.60;;;;;;5078876;28;20038;-93
2021/01/17 02:15:52;;;;;;;146.77;43.23;;;-17.90;76.30;;;;;;5079159;28;20107;-92
2021/01/17 02:18:21;;;;;;;165.52;46.67;;;-16.20;77.30;;;;;;5078818;28;20024;-93
2021/01/17 02:20:49;;;;;;;178.73;51.30;;;-17.90;76.50;;;;;;5078485;28;20496;-92
2021/01/17 02:23:41;;;;;;;186.77;56.83;;;-17.90;76.80;;;;;;5078937;28;20028;-93
2021/01/17 02:26:10;;;;;;;168.37;50.77;;;-17.90;76.70;;;;;;5078609;28;20028;-92
2021/01/17 02:28:37;;;;;;;173.93;53.40;;;-17.90;76.70;;;;;;5078906;28;20024;-92
2021/01/17 02:31:04;;;;;;;172.43;54.00;;;-17.90;76.40;;;;;;5079516;28;20477;-93
2021/01/17 02:33:34;;;;;;;152.80;49.20;;;-17.90;76.50;;;;;;5096974;28;20082;-92
2021/01/17 02:36:18;;;;;;;166.75;51.85;;;-16.30;77.40;;;;;;5079071;28;20039;-92
2021/01/17 02:39:13;;;;;;;151.67;44.30;;;-17.90;76.40;;;;;;5086747;28;20024;-91
2021/01/17 02:42:00;;;;;;;147.67;47.10;;;-17.90;76.60;;;;;;5079782;28;20020;-92
2021/01/17 02:44:31;;;;;;;162.97;47.73;;;-17.80;76.70;;;;;;5078707;28;20016;-92
2021/01/17 02:46:57;;;;;;;149.93;44.97;;;-17.90;76.40;;;;;;5078401;28;20048;-93
2021/01/17 02:49:23;;;;;;;153.43;45.53;;;-17.90;76.50;;;;;;5079220;28;20125;-91
2021/01/17 02:51:50;;;;;;;145.50;42.40;;;-17.70;76.90;;;;;;5078390;28;20477;-93
2021/01/17 02:54:33;;;;;;;163.03;48.57;;;-17.50;77.20;;;;;;5078620;28;20115;-93
2021/01/17 02:57:10;;;;;;;193.67;50.67;;;-17.80;77.20;;;;;;5078638;28;20039;-93
2021/01/17 02:59:50;;;;;;;279.70;74.13;;;-17.80;76.70;;;;;;5078345;28;20059;-93
2021/01/17 03:02:18;;;;;;;287.02;75.13;;;-17.80;76.50;;;;;;5078380;28;20028;-93
2021/01/17 03:04:52;;;;;;;283.13;68.63;;;-17.80;76.40;;;;;;5078300;28;20028;-93
2021/01/17 03:07:20;;;;;;;139.10;40.10;;;-17.80;76.30;;;;;;5078061;28;20042;-93
2021/01/17 03:09:46;;;;;;;167.10;50.67;;;-17.70;76.40;;;;;;5096705;28;20044;-93
2021/01/17 03:12:12;;;;;;;187.23;54.70;;;-17.70;76.40;;;;;;5077944;28;20488;-93
2021/01/17 03:14:39;;;;;;;170.50;51.93;;;-17.70;76.30;;;;;;5077827;28;20347;-94
2021/01/17 03:17:07;;;;;;;178.93;54.77;;;-17.60;76.40;;;;;;5078035;28;20024;-94
2021/01/17 03:19:33;;;;;;;192.13;56.67;;;-17.70;76.00;;;;;;5077738;28;20024;-93
2021/01/17 03:21:59;;;;;;;179.43;58.40;;;-17.80;76.10;;;;;;5077775;28;20501;-93
2021/01/17 03:24:25;;;;;;;178.67;56.37;;;-17.80;76.90;;;;;;5077690;28;20028;-94
2021/01/17 03:26:51;;;;;;;161.00;52.20;;;-17.80;77.00;;;;;;5077867;28;20031;-93
2021/01/17 03:29:17;;;;;;;171.00;52.63;;;-17.90;77.00;;;;;;5077905;28;20072;-92
2021/01/17 03:31:43;;;;;;;181.13;55.50;;;-18.00;77.50;;;;;;5076563;28;20107;-93
2021/01/17 03:34:09;;;;;;;163.50;48.93;;;-18.00;77.90;;;;;;5095778;28;20107;-93
2021/01/17 03:36:35;;;;;;;124.27;38.13;;;-18.00;77.70;;;;;;5077917;28;20156;-94
2021/01/17 03:39:00;;;;;;;108.60;35.90;;;-17.90;77.30;;;;;;5077552;28;20048;-93
2021/01/17 03:41:26;;;;;;;134.23;43.10;;;-17.80;77.00;;;;;;5077347;28;20023;-92
2021/01/17 03:43:52;;;;;;;132.43;42.80;;;-17.70;76.90;;;;;;5077586;28;20032;-92
2021/01/17 03:46:18;;;;;;;109.53;36.47;;;-17.70;76.80;;;;;;5068933;28;20110;-92
2021/01/17 03:48:44;;;;;;;119.03;39.87;;;-17.60;76.70;;;;;;5054118;28;20045;-92
2021/01/17 03:51:10;;;;;;;88.03;29.67;;;-17.60;76.40;;;;;;5054049;28;20413;-92
2021/01/17 03:53:36;;;;;;;74.13;26.53;;;-17.60;76.30;;;;;;5055100;28;20025;-92
2021/01/17 03:56:02;;;;;;;65.90;24.23;;;-17.60;76.10;;;;;;5053944;28;20050;-92
2021/01/17 03:58:28;;;;;;;81.67;28.27;;;-17.50;75.80;;;;;;5054167;28;20032;-92
2021/01/17 04:00:54;;;;;;;96.93;31.43;;;-17.50;75.50;;;;;;5070529;28;20025;-92
2021/01/17 04:03:20;;;;;;;100.30;29.60;;;-17.50;75.50;;;;;;5053836;28;20029;-92
2021/01/17 04:05:45;;;;;;;104.03;30.70;;;-17.50;75.30;;;;;;5054738;28;20020;-93
2021/01/17 04:08:12;;;;;;;104.80;30.67;;;-17.60;75.20;;;;;;5053622;28;20053;-93
2021/01/17 04:10:38;;;;;;;91.33;29.07;;;-17.50;75.10;;;;;;5054423;28;20075;-93
2021/01/17 04:13:04;;;;;;;85.27;27.03;;;-17.60;75.00;;;;;;5053494;28;20379;-92
2021/01/17 04:15:29;;;;;;;95.23;29.87;;;-17.60;74.70;;;;;;5053609;28;20088;-93
2021/01/17 04:17:55;;;;;;;83.23;27.97;;;-17.60;74.50;;;;;;5053644;28;20457;-92
2021/01/17 04:20:21;;;;;;;90.93;27.60;;;-17.70;74.30;;;;;;5053500;28;20119;-92
2021/01/17 04:22:47;;;;;;;76.80;27.07;;;-17.70;74.20;;;;;;5075180;28;20063;-91
2021/01/17 04:25:13;;;;;;;78.37;27.93;;;-17.70;74.10;;;;;;5060856;28;20033;-92
2021/01/17 04:27:39;;;;;;;72.30;25.43;;;-17.80;74.00;;;;;;5053438;28;20025;-92
2021/01/17 04:30:06;;;;;;;79.53;25.33;;;-17.70;74.10;;;;;;5053207;28;20378;-93
2021/01/17 04:32:32;;;;;;;66.87;24.77;;;-17.90;73.90;;;;;;5053373;28;20055;-93
2021/01/17 04:34:58;;;;;;;98.43;29.57;;;-17.90;73.90;;;;;;5053352;28;20029;-92
2021/01/17 04:37:25;;;;;;;108.30;33.60;;;-17.90;74.00;;;;;;5053451;28;20086;-93
2021/01/17 04:39:51;;;;;;;100.67;30.90;;;-18.10;74.20;;;;;;5053147;28;20021;-93
2021/01/17 04:42:22;;;;;;;107.40;32.43;;;-18.10;74.30;;;;;;5054496;28;20021;-93
2021/01/17 04:45:01;;;;;;;113.57;33.67;;;-18.10;74.40;;;;;;5053366;28;20033;-92
2021/01/17 04:47:28;;;;;;;104.40;33.40;;;-17.90;74.40;;;;;;5052849;28;20056;-93
2021/01/17 04:50:00;;;;;;;111.00;34.53;;;-18.20;74.20;;;;;;5053628;28;20017;-93
2021/01/17 04:52:29;;;;;;;121.57;42.03;;;-18.20;74.00;;;;;;5053341;28;20116;-93
2021/01/17 04:54:56;;;;;;;99.20;31.37;;;-18.30;74.20;;;;;;5053353;28;20100;-93
2021/01/17 04:57:52;;;;;;;92.73;30.87;;;-18.30;74.30;;;;;;5058889;28;20118;-94
2021/01/17 05:00:27;;;;;;;131.80;36.70;;;-18.30;74.40;;;;;;5060793;28;20022;-93
2021/01/17 05:03:21;;;;;;;119.53;39.20;;;-18.40;74.20;;;;;;5059016;28;20025;-93
2021/01/17 05:05:53;;;;;;;140.97;46.27;;;-18.40;74.10;;;;;;5060437;28;20032;-93
2021/01/17 05:08:31;;;;;;;141.53;45.63;;;-18.40;74.70;;;;;;5059639;28;20048;-94
2021/01/17 05:11:07;;;;;;;121.33;36.70;;;-18.50;74.40;;;;;;5057295;28;20017;-93
2021/01/17 05:13:38;;;;;;;101.40;32.20;;;-18.40;74.40;;;;;;5055768;28;20021;-92
2021/01/17 05:16:07;;;;;;;112.80;36.50;;;-18.50;74.40;;;;;;5052788;28;20028;-93
2021/01/17 05:18:33;;;;;;;118.13;40.43;;;-18.40;74.40;;;;;;5053075;28;20033;-93
2021/01/17 05:21:01;;;;;;;100.77;33.23;;;-18.50;74.50;;;;;;5053268;28;20048;-93
2021/01/17 05:23:38;;;;;;;103.50;35.37;;;-18.50;74.60;;;;;;5054037;28;20028;-93
2021/01/17 05:26:05;;;;;;;99.60;31.07;;;-18.50;74.40;;;;;;5052974;28;20075;-93
2021/01/17 05:28:32;;;;;;;82.93;28.13;;;-18.50;74.30;;;;;;5052614;28;20032;-92
2021/01/17 05:30:59;;;;;;;86.60;27.30;;;-18.60;74.30;;;;;;5052668;28;20517;-89
2021/01/17 05:33:30;;;;;;;98.53;31.87;;;-18.60;74.20;;;;;;5052438;28;20024;-93
2021/01/17 05:35:57;;;;;;;115.07;36.17;;;-18.60;74.10;;;;;;5052604;28;20029;-92
2021/01/17 05:38:24;;;;;;;111.97;37.47;;;-18.60;74.30;;;;;;5053843;28;20547;-92
2021/01/17 05:40:50;;;;;;;129.20;39.97;;;-18.70;75.10;;;;;;5052589;28;20102;-92
2021/01/17 05:43:15;;;;;;;134.77;39.03;;;-18.70;75.10;;;;;;5052680;28;20032;-92
2021/01/17 05:45:41;;;;;;;154.20;46.13;;;-18.70;75.10;;;;;;5052482;28;20079;-92
2021/01/17 05:48:07;;;;;;;155.00;48.77;;;-18.70;75.00;;;;;;5072059;28;20051;-92
2021/01/17 05:50:35;;;;;;;151.53;46.77;;;-18.70;75.10;;;;;;5072649;28;20485;-92
2021/01/17 05:53:03;;;;;;;135.60;41.67;;;-18.30;75.40;;;;;;5072436;28;20027;-92
2021/01/17 05:55:33;;;;;;;211.93;62.13;;;-18.70;75.20;;;;;;5076281;28;20020;-92
2021/01/17 05:58:22;;;;;;;232.50;73.43;;;-18.70;75.20;;;;;;5076063;28;20075;-92
2021/01/17 06:00:48;;;;;;;216.03;60.90;;;-18.90;75.50;;;;;;5076015;28;20032;-92
2021/01/17 06:03:22;;;;;;;233.33;69.67;;;-18.90;76.00;;;;;;5075993;28;20032;-92
2021/01/17 06:05:49;;;;;;;165.00;49.60;;;-18.90;76.20;;;;;;5076889;28;20028;-92
2021/01/17 06:08:18;;;;;;;196.77;56.87;;;-18.90;76.30;;;;;;5080240;28;20036;-91
2021/01/17 06:10:46;;;;;;;196.93;53.13;;;-18.70;76.30;;;;;;5076972;28;20028;-92
2021/01/17 06:13:22;;;;;;;160.67;48.10;;;-18.70;76.20;;;;;;5076191;28;20277;-92
2021/01/17 06:15:48;;;;;;;238.10;65.87;;;-18.60;76.10;;;;;;5075870;28;20024;-92
2021/01/17 06:18:19;;;;;;;177.50;54.37;;;-18.50;75.90;;;;;;5075934;28;20469;-92
2021/01/17 06:20:46;;;;;;;148.47;47.00;;;-18.40;75.50;;;;;;5075689;28;20055;-92
2021/01/17 06:23:18;;;;;;;161.23;52.57;;;-18.30;75.30;;;;;;5075775;28;20037;-92
2021/01/17 06:25:44;;;;;;;211.50;61.40;;;-18.30;75.00;;;;;;5075855;28;20033;-92
2021/01/17 06:28:14;;;;;;;187.17;58.93;;;-18.10;75.10;;;;;;5076582;28;20374;-92
2021/01/17 06:30:41;;;;;;;207.23;63.97;;;-18.30;75.00;;;;;;5077038;28;20028;-92
2021/01/17 06:33:08;;;;;;;209.47;65.43;;;-18.20;75.10;;;;;;5075268;28;20386;-92
2021/01/17 06:35:42;;;;;;;190.53;62.90;;;-18.20;75.00;;;;;;5075632;28;20028;-92
2021/01/17 06:38:18;;;;;;;210.70;64.83;;;-18.10;75.30;;;;;;5075534;28;20024;-92
2021/01/17 06:40:46;;;;;;;212.70;68.93;;;-18.10;75.50;;;;;;5075585;28;20111;-92
2021/01/17 06:43:13;;;;;;;202.37;65.23;;;-17.80;76.20;;;;;;5075448;28;20424;-92
2021/01/17 06:45:44;;;;;;;205.87;64.73;;;-17.90;76.00;;;;;;5075614;28;20025;-91
2021/01/17 06:48:21;;;;;;;210.80;67.80;;;-17.90;76.10;;;;;;5075262;28;20135;-92
2021/01/17 06:50:47;;;;;;;245.23;84.63;;;-17.70;76.20;;;;;;5075255;28;20025;-91
2021/01/17 06:53:24;;;;;;;242.63;82.23;;;-17.70;77.10;;;;;;5075048;28;20462;-92
2021/01/17 06:56:15;;;;;;;258.63;81.37;;;-17.60;76.50;;;;;;5075167;28;20359;-92
2021/01/17 06:58:41;;;;;;;266.95;86.97;;;-17.50;77.10;;;;;;5075143;28;20028;-92
2021/01/17 07:01:10;;;;;;;232.70;78.87;;;-17.40;77.00;;;;;;5075616;28;20066;-91
2021/01/17 07:04:18;;;;;;;183.90;60.17;;;-17.40;76.90;;;;;;5075267;28;20024;-92
2021/01/17 07:07:05;;;;;;;279.17;80.40;;;-17.20;76.80;;;;;;5074825;28;20107;-91
2021/01/17 07:09:49;;;;;;;255.17;79.43;;;-17.10;76.60;;;;;;5091933;28;20370;-92
2021/01/17 07:12:53;;;;;;;215.90;72.63;;;-17.00;76.60;;;;;;5074595;28;20028;-92
2021/01/17 07:15:34;;;;;;;187.07;58.10;;;-16.80;76.70;;;;;;5074461;28;20052;-92
2021/01/17 07:18:05;;;;;;;232.83;66.57;;;-16.60;76.80;;;;;;5074666;28;20043;-91
2021/01/17 07:20:34;;;;;;;220.90;62.93;;;-16.50;76.80;;;;;;5074710;28;20028;-91
2021/01/17 07:23:01;;;;;;;253.67;75.07;;;-16.40;76.80;;;;;;5075902;28;20031;-91
2021/01/17 07:25:27;;;;;;;238.10;75.87;;;-16.40;77.40;;;;;;5074525;28;20028;-91
2021/01/17 07:28:15;;;;;;;226.20;72.83;;;-16.30;77.30;;;;;;5074144;28;20031;-91
2021/01/17 07:30:47;;;;;;;232.97;75.63;;;-16.20;77.20;;;;;;5074528;28;20074;-92
2021/01/17 07:33:23;;;;;;;219.67;71.43;;;-16.00;77.50;;;;;;5074381;28;20024;-92
2021/01/17 07:35:49;;;;;;;161.07;57.53;;;-16.00;77.20;;;;;;5075346;28;20027;-92
2021/01/17 07:38:21;;;;;;;185.37;68.13;;;-15.80;76.70;;;;;;5073855;28;20028;-91
2021/01/17 07:40:55;;;;;;;129.93;46.77;;;-13.20;78.70;;;;;;5074075;28;20021;-91
2021/01/17 07:43:22;;;;;;;132.73;47.50;;;-15.70;76.90;;;;;;5074009;28;20066;-91
2021/01/17 07:45:49;;;;;;;124.53;42.47;;;-15.60;76.90;;;;;;5091000;28;20020;-91
2021/01/17 07:48:15;;;;;;;166.00;55.90;;;-15.50;77.50;;;;;;5076921;28;20023;-91
2021/01/17 07:50:45;;;;;;;113.30;38.80;;;-15.30;77.70;;;;;;5095164;28;20020;-91
2021/01/17 07:53:31;;;;;;;139.87;44.77;;;-15.30;77.60;;;;;;5099508;28;20031;-91
2021/01/17 07:56:13;;;;;;;139.73;45.50;;;-15.40;76.50;;;;;;5077163;28;20020;-91
2021/01/17 07:58:48;;;;;;;107.90;36.60;;;-15.10;77.20;;;;;;5077156;28;20094;-91
2021/01/17 08:01:35;;;;;;;107.10;34.10;;;-15.00;77.00;;;;;;5076890;28;20474;-91
2021/01/17 08:04:03;;;;;;;123.47;38.97;;;-14.90;76.40;;;;;;5076814;28;20069;-91
2021/01/17 08:06:35;;;;;;;141.37;41.00;;;-14.80;76.00;;;;;;5077046;28;20020;-91
2021/01/17 08:09:56;;;;;;;104.50;33.73;;;-12.20;77.40;;;;;;5076891;28;20454;-91
2021/01/17 08:12:30;;;;;;;89.53;31.03;;;-14.70;76.00;;;;;;5053005;28;20036;-91
2021/01/17 08:15:13;;;;;;;86.73;29.20;;;-14.50;75.90;;;;;;5057225;28;20347;-92
2021/01/17 08:17:38;;;;;;;87.27;30.80;;;-14.40;75.90;;;;;;5056407;28;20033;-91
2021/01/17 08:20:06;;;;;;;77.00;33.67;;;-14.30;75.90;;;;;;5070156;28;20032;-91
2021/01/17 08:22:32;;;;;;;70.63;30.53;;;-14.20;75.70;;;;;;5077028;28;20035;-91
2021/01/17 08:25:03;;;;;;;83.53;35.57;;;-14.20;75.10;;;;;;5076806;28;20016;-92
2021/01/17 08:27:30;;;;;;;108.43;46.07;;;-14.10;74.70;;;;;;5076776;28;20020;-92
2021/01/17 08:30:08;;;;;;;66.97;28.97;;;-14.10;74.70;;;;;;5094608;28;20028;-91
2021/01/17 08:32:43;;;;;;;60.77;25.63;;;-14.00;74.30;;;;;;5076782;28;20020;-91
2021/01/17 08:35:22;;;;;;;81.97;38.07;;;-13.90;74.10;;;;;;5093773;28;20381;-91
2021/01/17 08:37:52;;;;;;;84.97;37.43;;;-14.00;74.00;;;;;;5094598;28;20027;-91
2021/01/17 08:40:30;;;;;;;148.70;45.58;;;-13.10;74.90;;;;;;5094938;28;20056;-91
2021/01/17 08:43:04;;;;;;;107.80;45.03;;;-13.90;74.40;;;;;;5076695;28;20473;-91
2021/01/17 08:45:38;;;;;;;99.30;41.20;;;-13.80;74.40;;;;;;5076657;28;20028;-91
2021/01/17 08:48:16;;;;;;;72.73;29.03;;;-13.70;74.50;;;;;;5094238;28;20123;-91
2021/01/17 08:50:43;;;;;;;54.07;19.63;;;-13.80;73.50;;;;;;5076608;28;20035;-91
2021/01/17 08:53:11;;;;;;;53.87;21.13;;;-13.60;74.00;;;;;;5076557;28;20059;-91
2021/01/17 08:55:38;;;;;;;78.40;30.00;;;-13.60;74.50;;;;;;5075529;28;20024;-91
2021/01/17 08:58:04;;;;;;;80.07;31.57;;;-13.20;74.00;;;;;;5075974;28;20024;-91
2021/01/17 09:00:48;;;;;;;75.17;28.80;;;-13.40;73.10;;;;;;5082711;28;20035;-91
2021/01/17 09:03:36;;;;;;;59.87;25.60;;;-13.40;72.90;;;;;;5095763;28;20472;-89
2021/01/17 09:06:23;;;;;;;91.60;33.97;;;-13.50;72.80;;;;;;5096403;28;20032;-89
2021/01/17 09:08:58;;;;;;;70.47;26.20;;;-13.40;73.60;;;;;;5107456;28;20064;-89
2021/01/17 09:11:32;;;;;;;57.13;23.80;;;-13.30;74.20;;;;;;5075799;28;20110;-89
2021/01/17 09:14:15;;;;;;;62.43;23.47;;;-13.10;72.70;;;;;;5075852;28;20020;-89
2021/01/17 09:16:51;;;;;;;55.67;21.73;;;-13.00;72.40;;;;;;5075677;28;20031;-89
2021/01/17 09:19:20;;;;;;;65.93;25.97;;;-12.70;72.00;;;;;;5075247;28;20024;-89
2021/01/17 09:21:54;;;;;;;70.77;27.97;;;-12.90;71.90;;;;;;5075726;28;20115;-89
2021/01/17 09:24:25;;;;;;;59.10;23.60;;;-13.10;71.90;;;;;;5075720;28;20069;-89
2021/01/17 09:26:53;;;;;;;68.23;28.43;;;-13.20;71.30;;;;;;5075208;28;20081;-89
2021/01/17 09:29:30;;;;;;;54.27;22.73;;;-13.00;72.50;;;;;;5076606;28;20470;-89
2021/01/17 09:32:10;;;;;;;53.57;20.47;;;-13.00;73.00;;;;;;5079680;28;20020;-89
2021/01/17 09:34:41;;;;;;;46.83;21.47;;;-12.80;72.80;;;;;;5079445;28;20032;-89
2021/01/17 09:37:18;;;;;;;48.27;18.60;;;-12.70;71.70;;;;;;5083841;28;20024;-89
2021/01/17 09:39:52;;;;;;;57.65;22.67;;;-12.70;70.90;;;;;;5080985;28;20547;-89
2021/01/17 09:42:20;;;;;;;51.50;20.80;;;-12.40;71.40;;;;;;5078387;28;20430;-89
2021/01/17 09:44:54;;;;;;;52.13;20.63;;;-12.40;71.50;;;;;;5078870;28;20099;-90
2021/01/17 09:47:22;;;;;;;48.27;18.70;;;-10.90;72.90;;;;;;5078034;28;20044;-90
2021/01/17 09:49:48;;;;;;;68.67;28.40;;;-12.40;71.30;;;;;;5077362;28;20027;-89
2021/01/17 09:52:25;;;;;;;54.73;22.50;;;-12.50;69.20;;;;;;5077911;28;20020;-89
2021/01/17 09:54:53;;;;;;;85.37;33.17;;;-12.60;69.50;;;;;;5078652;28;20153;-89
2021/01/17 09:57:26;;;;;;;65.32;25.13;;;-12.50;70.70;;;;;;5075891;28;20028;-89
2021/01/17 09:59:53;;;;;;;55.77;24.87;;;-12.30;69.60;;;;;;5097023;28;20024;-91
2021/01/17 10:02:24;;;;;;;57.07;25.70;;;-12.60;68.40;;;;;;5079338;28;20119;-91
2021/01/17 10:04:51;;;;;;;70.87;25.63;;;-12.60;69.40;;;;;;5079100;28;20034;-91
2021/01/17 10:07:20;;;;;;;60.47;21.13;;;-12.20;70.40;;;;;;5079170;28;20031;-90
2021/01/17 10:09:46;;;;;;;56.55;23.02;;;;;;;;;;5078665;28;20047;-92
2021/01/17 10:12:12;;;;;;;52.42;22.92;;;-13.20;68.00;;;;;;5078869;28;20020;-89
2021/01/17 10:14:38;;;;;;;56.05;20.45;;;-10.60;70.00;;;;;;5078968;28;20493;-89
2021/01/17 10:17:06;;;;;;;63.17;23.52;;;-8.40;70.80;;;;;;5078904;28;20135;-89
2021/01/17 10:19:37;;;;;;;52.90;23.60;;;-11.30;66.80;;;;;;5078913;28;20047;-89
2021/01/17 10:22:04;;;;;;;63.05;24.75;;;-10.80;67.70;;;;;;5078847;28;20106;-89
2021/01/17 10:24:33;;;;;;;66.80;25.10;;;-11.20;68.50;;;;;;5078930;28;20024;-89
2021/01/17 10:27:01;;;;;;;60.97;24.65;;;-10.20;67.70;;;;;;5078804;28;20028;-88
2021/01/17 10:29:33;;;;;;;76.85;28.98;;;-11.00;67.40;;;;;;5078662;28;20073;-89
2021/01/17 10:32:04;;;;;;;63.13;26.95;;;-11.20;65.70;;;;;;5078539;28;20464;-88
2021/01/17 10:34:33;;;;;;;65.28;23.10;;;-11.30;66.10;;;;;;5078991;28;20024;-88
2021/01/17 10:37:05;;;;;;;69.07;23.27;;;-11.30;67.10;;;;;;5078715;28;20367;-88
2021/01/17 10:39:33;;;;;;;69.38;26.23;;;-11.10;66.90;;;;;;5078361;28;20024;-88
2021/01/17 10:42:26;;;;;;;62.15;23.98;;;-11.60;66.80;;;;;;5078518;28;20039;-89
2021/01/17 10:45:07;;;;;;;69.97;28.30;;;-11.10;65.30;;;;;;5064605;28;20024;-89
2021/01/17 10:47:35;;;;;;;66.38;28.67;;;-11.40;66.20;;;;;;5078227;28;20064;-89
2021/01/17 10:50:09;;;;;;;70.18;30.00;;;-11.40;66.80;;;;;;5078429;28;20028;-89
2021/01/17 10:52:40;;;;;;;54.38;23.10;;;-11.70;67.30;;;;;;5078277;28;20031;-89
2021/01/17 10:55:07;;;;;;;60.75;22.08;;;-11.60;66.70;;;;;;5096422;28;20383;-89
2021/01/17 10:57:36;;;;;;;58.85;25.27;;;-12.00;67.00;;;;;;5095192;28;20046;-89
2021/01/17 11:00:09;;;;;;;76.57;33.72;;;-11.90;67.00;;;;;;5078260;28;20020;-89
2021/01/17 11:02:35;;;;;;;87.55;37.30;;;-12.10;67.20;;;;;;5077724;28;20048;-89
2021/01/17 11:05:03;;;;;;;53.88;23.92;;;-12.00;67.90;;;;;;5078140;28;20141;-89
2021/01/17 11:07:29;;;;;;;47.63;19.50;;;-11.80;67.10;;;;;;5096213;28;20488;-90
2021/01/17 11:09:56;;;;;;;42.78;20.75;;;-12.20;67.00;;;;;;5077842;28;20020;-89
2021/01/17 11:12:38;;;;;;;62.50;24.08;;;-12.40;66.90;;;;;;5094300;28;20031;-90
2021/01/17 11:15:23;;;;;;;66.80;26.17;;;-12.20;67.80;;;;;;5094247;28;20418;-89
2021/01/17 11:17:56;;;;;;;47.00;18.73;;;-12.40;67.50;;;;;;5095526;28;20020;-89
2021/01/17 11:20:29;;;;;;;59.85;23.70;;;-12.40;66.30;;;;;;5077043;28;20614;-89
2021/01/17 11:23:05;;;;;;;59.15;22.13;;;-12.40;67.10;;;;;;5080379;28;20020;-89
2021/01/17 11:25:32;;;;;;;50.05;19.17;;;-10.00;68.40;;;;;;5081197;28;20385;-89
2021/01/17 11:28:04;;;;;;;42.17;17.43;;;-12.20;66.90;;;;;;5094600;28;20024;-89
2021/01/17 11:30:31;;;;;;;41.92;16.45;;;-11.30;69.60;;;;;;5076875;28;20473;-89
2021/01/17 11:33:13;;;;;;;38.17;16.73;;;-12.30;66.80;;;;;;5077123;28;20031;-89
2021/01/17 11:35:40;;;;;;;53.40;21.55;;;-12.10;67.50;;;;;;5077147;28;20025;-89
2021/01/17 11:38:06;;;;;;;60.55;25.13;;;-12.10;66.80;;;;;;5076926;28;20382;-90
2021/01/17 11:40:32;;;;;;;44.83;19.83;;;-12.50;66.80;;;;;;5076525;28;20028;-89
2021/01/17 11:43:12;;;;;;;50.23;21.13;;;-12.40;66.40;;;;;;5077004;28;20020;-90
2021/01/17 11:45:46;;;;;;;35.77;14.87;;;-12.50;67.10;;;;;;5077141;28;20028;-89
2021/01/17 11:48:12;;;;;;;33.60;14.15;;;-11.80;67.40;;;;;;5076720;28;20135;-89
2021/01/17 11:50:46;;;;;;;35.55;15.40;;;-11.30;67.20;;;;;;5094569;28;20099;-89
2021/01/17 11:53:12;;;;;;;47.38;20.08;;;-11.60;66.10;;;;;;5076145;28;20474;-90
2021/01/17 11:55:38;;;;;;;45.25;19.65;;;-11.70;64.70;;;;;;5076028;28;20070;-82
2021/01/17 11:58:15;;;;;;;47.40;17.30;;;-11.70;65.60;;;;;;5075267;28;20032;-83
2021/01/17 12:00:49;;;;;;;46.13;17.60;;;-11.60;65.50;;;;;;5075455;28;20382;-82
2021/01/17 12:03:41;;;;;;;46.10;21.42;;;-11.80;64.70;;;;;;5074676;28;20028;-83
2021/01/17 12:06:16;;;;;;;41.97;17.02;;;-12.00;65.40;;;;;;5072329;28;20036;-82
2021/01/17 12:09:05;;;;;;;46.47;17.73;;;-11.80;65.80;;;;;;5075217;28;20061;-83
2021/01/17 12:11:47;;;;;;;35.97;14.98;;;-12.10;65.50;;;;;;5093885;28;20034;-82
2021/01/17 12:14:20;;;;;;;51.40;21.08;;;-12.20;66.10;;;;;;5076235;28;20028;-83
2021/01/17 12:16:45;;;;;;;48.08;18.90;;;-12.20;65.90;;;;;;5075989;28;20028;-83
2021/01/17 12:19:13;;;;;;;78.10;25.75;;;-12.00;65.70;;;;;;5075975;28;20028;-82
2021/01/17 12:21:40;;;;;;;81.15;26.08;;;-11.80;66.10;;;;;;5075798;28;20032;-82
2021/01/17 12:24:09;;;;;;;55.65;20.17;;;-12.00;66.60;;;;;;5075941;28;20028;-83
2021/01/17 12:26:35;;;;;;;59.33;21.90;;;-11.90;66.10;;;;;;5093996;28;20058;-83
2021/01/17 12:29:01;;;;;;;48.72;19.15;;;-11.90;66.60;;;;;;5075887;28;20051;-83
2021/01/17 12:31:27;;;;;;;52.35;20.65;;;-11.90;66.30;;;;;;5093606;28;20020;-82